sensor_id;sensor_type;location;lat;lon;timestamp;P1;durP1;ratioP1;P2;durP2;ratioP2
14369;SDS011;7268;50.792;0.252;2022-12-18T00:00:15;29.98;;;9.07;;
14369;SDS011;7268;50.792;0.252;2022-12-18T00:02:46;32.28;;;9.82;;
14369;SDS011;7268;50.792;0.252;2022-12-18T00:05:14;33.72;;;9.85;;
14369;SDS011;7268;50.792;0.252;2022-12-18T00:07:44;32.60;;;10.18;;
14369;SDS011;7268;50.792;0.252;2022-12-18T00:10:12;27.10;;;8.38;;
14369;SDS011;7268;50.792;0.252;2022-12-18T00:12:40;29.25;;;9.60;;
14369;SDS011;7268;50.792;0.252;2022-12-18T00:15:09;27.60;;;8.15;;
14369;SDS011;7268;50.792;0.252;2022-12-18T00:17:37;31.23;;;8.48;;
14369;SDS011;7268;50.792;0.252;2022-12-18T00:20:04;32.15;;;8.45;;
14369;SDS011;7268;50.792;0.252;2022-12-18T00:22:35;29.52;;;9.27;;
14369;SDS011;7268;50.792;0.252;2022-12-18T00:25:05;33.58;;;9.15;;
14369;SDS011;7268;50.792;0.252;2022-12-18T00:27:32;26.25;;;7.60;;
14369;SDS011;7268;50.792;0.252;2022-12-18T00:30:00;22.60;;;7.35;;
14369;SDS011;7268;50.792;0.252;2022-12-18T00:32:32;21.40;;;7.38;;
14369;SDS011;7268;50.792;0.252;2022-12-18T00:35:06;24.40;;;8.43;;
14369;SDS011;7268;50.792;0.252;2022-12-18T00:37:34;27.17;;;9.38;;
14369;SDS011;7268;50.792;0.252;2022-12-18T00:40:02;27.77;;;7.65;;
14369;SDS011;7268;50.792;0.252;2022-12-18T00:42:30;26.27;;;7.68;;
14369;SDS011;7268;50.792;0.252;2022-12-18T00:45:17;30.83;;;8.48;;
14369;SDS011;7268;50.792;0.252;2022-12-18T00:47:47;28.58;;;7.50;;
14369;SDS011;7268;50.792;0.252;2022-12-18T00:50:14;27.33;;;7.45;;
14369;SDS011;7268;50.792;0.252;2022-12-18T00:52:44;26.38;;;7.93;;
14369;SDS011;7268;50.792;0.252;2022-12-18T00:55:12;25.15;;;7.80;;
14369;SDS011;7268;50.792;0.252;2022-12-18T00:57:40;26.45;;;7.18;;
14369;SDS011;7268;50.792;0.252;2022-12-18T01:00:11;25.10;;;7.90;;
14369;SDS011;7268;50.792;0.252;2022-12-18T01:02:39;22.52;;;6.95;;
14369;SDS011;7268;50.792;0.252;2022-12-18T01:05:07;20.10;;;6.72;;
14369;SDS011;7268;50.792;0.252;2022-12-18T01:07:39;21.40;;;7.00;;
14369;SDS011;7268;50.792;0.252;2022-12-18T01:10:08;18.33;;;5.50;;
14369;SDS011;7268;50.792;0.252;2022-12-18T01:12:36;17.20;;;5.80;;
14369;SDS011;7268;50.792;0.252;2022-12-18T01:15:05;18.75;;;5.55;;
14369;SDS011;7268;50.792;0.252;2022-12-18T01:17:36;15.50;;;4.88;;
14369;SDS011;7268;50.792;0.252;2022-12-18T01:20:04;18.95;;;4.90;;
14369;SDS011;7268;50.792;0.252;2022-12-18T01:22:35;16.02;;;4.80;;
14369;SDS011;7268;50.792;0.252;2022-12-18T01:25:04;14.43;;;4.90;;
14369;SDS011;7268;50.792;0.252;2022-12-18T01:27:33;17.02;;;5.00;;
14369;SDS011;7268;50.792;0.252;2022-12-18T01:30:02;16.83;;;4.72;;
14369;SDS011;7268;50.792;0.252;2022-12-18T01:32:30;11.23;;;3.42;;
14369;SDS011;7268;50.792;0.252;2022-12-18T01:34:58;15.40;;;4.28;;
14369;SDS011;7268;50.792;0.252;2022-12-18T01:37:26;14.18;;;4.70;;
14369;SDS011;7268;50.792;0.252;2022-12-18T01:39:54;21.20;;;5.60;;
14369;SDS011;7268;50.792;0.252;2022-12-18T01:42:28;15.90;;;4.38;;
14369;SDS011;7268;50.792;0.252;2022-12-18T01:45:08;16.98;;;4.43;;
14369;SDS011;7268;50.792;0.252;2022-12-18T01:48:03;17.05;;;4.20;;
14369;SDS011;7268;50.792;0.252;2022-12-18T01:50:37;15.95;;;4.57;;
14369;SDS011;7268;50.792;0.252;2022-12-18T01:53:07;14.88;;;4.38;;
14369;SDS011;7268;50.792;0.252;2022-12-18T01:55:45;11.88;;;3.70;;
14369;SDS011;7268;50.792;0.252;2022-12-18T01:58:14;16.50;;;4.53;;
14369;SDS011;7268;50.792;0.252;2022-12-18T02:00:49;12.13;;;4.28;;
14369;SDS011;7268;50.792;0.252;2022-12-18T02:03:25;14.85;;;5.07;;
14369;SDS011;7268;50.792;0.252;2022-12-18T02:09:07;18.65;;;5.13;;
14369;SDS011;7268;50.792;0.252;2022-12-18T02:11:45;17.30;;;4.80;;
14369;SDS011;7268;50.792;0.252;2022-12-18T02:17:31;22.23;;;4.75;;
14369;SDS011;7268;50.792;0.252;2022-12-18T02:28:25;17.75;;;4.60;;
14369;SDS011;7268;50.792;0.252;2022-12-18T02:30:58;18.88;;;5.15;;
14369;SDS011;7268;50.792;0.252;2022-12-18T02:33:33;17.17;;;5.18;;
14369;SDS011;7268;50.792;0.252;2022-12-18T02:36:02;15.20;;;4.43;;
14369;SDS011;7268;50.792;0.252;2022-12-18T02:38:32;15.85;;;4.30;;
14369;SDS011;7268;50.792;0.252;2022-12-18T02:41:00;13.05;;;4.22;;
14369;SDS011;7268;50.792;0.252;2022-12-18T02:43:29;17.63;;;4.50;;
14369;SDS011;7268;50.792;0.252;2022-12-18T02:45:58;17.58;;;5.20;;
14369;SDS011;7268;50.792;0.252;2022-12-18T02:48:28;11.98;;;4.13;;
14369;SDS011;7268;50.792;0.252;2022-12-18T02:53:38;16.63;;;4.78;;
14369;SDS011;7268;50.792;0.252;2022-12-18T02:56:27;18.42;;;4.93;;
14369;SDS011;7268;50.792;0.252;2022-12-18T03:07:20;18.52;;;5.25;;
14369;SDS011;7268;50.792;0.252;2022-12-18T03:09:52;11.90;;;4.32;;
14369;SDS011;7268;50.792;0.252;2022-12-18T03:12:24;15.63;;;5.22;;
14369;SDS011;7268;50.792;0.252;2022-12-18T03:15:20;13.68;;;4.10;;
14369;SDS011;7268;50.792;0.252;2022-12-18T03:17:55;12.23;;;4.32;;
14369;SDS011;7268;50.792;0.252;2022-12-18T03:20:39;17.55;;;4.00;;
14369;SDS011;7268;50.792;0.252;2022-12-18T03:23:50;16.15;;;3.78;;
14369;SDS011;7268;50.792;0.252;2022-12-18T03:26:22;13.95;;;4.38;;
14369;SDS011;7268;50.792;0.252;2022-12-18T03:28:54;13.55;;;4.45;;
14369;SDS011;7268;50.792;0.252;2022-12-18T03:31:26;18.83;;;4.50;;
14369;SDS011;7268;50.792;0.252;2022-12-18T03:34:05;17.33;;;4.63;;
14369;SDS011;7268;50.792;0.252;2022-12-18T03:36:36;16.92;;;5.25;;
14369;SDS011;7268;50.792;0.252;2022-12-18T03:39:09;19.02;;;4.75;;
14369;SDS011;7268;50.792;0.252;2022-12-18T03:41:40;13.40;;;5.20;;
14369;SDS011;7268;50.792;0.252;2022-12-18T03:44:20;15.20;;;4.63;;
14369;SDS011;7268;50.792;0.252;2022-12-18T03:46:58;13.18;;;4.47;;
14369;SDS011;7268;50.792;0.252;2022-12-18T03:52:10;14.30;;;4.20;;
14369;SDS011;7268;50.792;0.252;2022-12-18T03:54:48;12.68;;;4.13;;
14369;SDS011;7268;50.792;0.252;2022-12-18T03:57:19;11.70;;;4.13;;
14369;SDS011;7268;50.792;0.252;2022-12-18T03:59:49;15.40;;;3.97;;
14369;SDS011;7268;50.792;0.252;2022-12-18T04:02:22;13.85;;;4.40;;
14369;SDS011;7268;50.792;0.252;2022-12-18T04:04:52;16.10;;;4.78;;
14369;SDS011;7268;50.792;0.252;2022-12-18T04:07:23;13.93;;;4.65;;
14369;SDS011;7268;50.792;0.252;2022-12-18T04:09:55;14.75;;;4.30;;
14369;SDS011;7268;50.792;0.252;2022-12-18T04:14:52;14.43;;;4.20;;
14369;SDS011;7268;50.792;0.252;2022-12-18T04:17:29;15.55;;;4.93;;
14369;SDS011;7268;50.792;0.252;2022-12-18T04:20:02;16.88;;;5.80;;
14369;SDS011;7268;50.792;0.252;2022-12-18T04:22:30;13.23;;;4.40;;
14369;SDS011;7268;50.792;0.252;2022-12-18T04:25:09;14.90;;;3.63;;
14369;SDS011;7268;50.792;0.252;2022-12-18T04:27:37;12.07;;;3.40;;
14369;SDS011;7268;50.792;0.252;2022-12-18T04:30:06;8.52;;;2.63;;
14369;SDS011;7268;50.792;0.252;2022-12-18T04:32:34;6.82;;;2.80;;
14369;SDS011;7268;50.792;0.252;2022-12-18T04:35:03;15.23;;;4.20;;
14369;SDS011;7268;50.792;0.252;2022-12-18T04:37:33;9.93;;;3.70;;
14369;SDS011;7268;50.792;0.252;2022-12-18T04:40:00;11.80;;;4.15;;
14369;SDS011;7268;50.792;0.252;2022-12-18T04:42:28;15.52;;;3.65;;
14369;SDS011;7268;50.792;0.252;2022-12-18T04:44:56;13.85;;;4.05;;
14369;SDS011;7268;50.792;0.252;2022-12-18T04:47:24;11.43;;;3.53;;
14369;SDS011;7268;50.792;0.252;2022-12-18T04:52:24;11.07;;;4.20;;
14369;SDS011;7268;50.792;0.252;2022-12-18T04:54:54;12.52;;;3.97;;
14369;SDS011;7268;50.792;0.252;2022-12-18T04:57:22;16.02;;;4.50;;
14369;SDS011;7268;50.792;0.252;2022-12-18T04:59:50;12.95;;;4.47;;
14369;SDS011;7268;50.792;0.252;2022-12-18T05:02:17;13.18;;;4.03;;
14369;SDS011;7268;50.792;0.252;2022-12-18T05:04:46;10.30;;;2.85;;
14369;SDS011;7268;50.792;0.252;2022-12-18T05:07:21;14.68;;;4.47;;
14369;SDS011;7268;50.792;0.252;2022-12-18T05:09:49;14.38;;;4.18;;
14369;SDS011;7268;50.792;0.252;2022-12-18T05:12:19;14.05;;;4.00;;
14369;SDS011;7268;50.792;0.252;2022-12-18T05:14:47;11.00;;;3.53;;
14369;SDS011;7268;50.792;0.252;2022-12-18T05:17:17;12.43;;;4.40;;
14369;SDS011;7268;50.792;0.252;2022-12-18T05:19:47;14.48;;;4.93;;
14369;SDS011;7268;50.792;0.252;2022-12-18T05:22:19;16.10;;;5.28;;
14369;SDS011;7268;50.792;0.252;2022-12-18T05:24:46;12.65;;;4.43;;
14369;SDS011;7268;50.792;0.252;2022-12-18T05:27:13;15.35;;;4.00;;
14369;SDS011;7268;50.792;0.252;2022-12-18T05:30:10;13.20;;;4.50;;
14369;SDS011;7268;50.792;0.252;2022-12-18T05:32:43;14.07;;;4.45;;
14369;SDS011;7268;50.792;0.252;2022-12-18T05:35:12;15.93;;;4.22;;
14369;SDS011;7268;50.792;0.252;2022-12-18T05:37:41;17.20;;;3.70;;
14369;SDS011;7268;50.792;0.252;2022-12-18T05:40:13;10.25;;;2.50;;
14369;SDS011;7268;50.792;0.252;2022-12-18T05:42:43;10.30;;;3.05;;
14369;SDS011;7268;50.792;0.252;2022-12-18T05:45:11;13.98;;;4.50;;
14369;SDS011;7268;50.792;0.252;2022-12-18T05:47:43;16.30;;;4.15;;
14369;SDS011;7268;50.792;0.252;2022-12-18T05:50:11;11.70;;;4.13;;
14369;SDS011;7268;50.792;0.252;2022-12-18T05:52:40;15.38;;;4.03;;
14369;SDS011;7268;50.792;0.252;2022-12-18T05:55:13;15.05;;;4.50;;
14369;SDS011;7268;50.792;0.252;2022-12-18T05:57:41;11.15;;;4.22;;
14369;SDS011;7268;50.792;0.252;2022-12-18T06:00:18;11.05;;;4.20;;
14369;SDS011;7268;50.792;0.252;2022-12-18T06:02:47;14.13;;;4.40;;
14369;SDS011;7268;50.792;0.252;2022-12-18T06:05:16;17.15;;;5.25;;
14369;SDS011;7268;50.792;0.252;2022-12-18T06:07:45;16.05;;;4.70;;
14369;SDS011;7268;50.792;0.252;2022-12-18T06:10:13;13.38;;;3.97;;
14369;SDS011;7268;50.792;0.252;2022-12-18T06:12:41;15.73;;;5.35;;
14369;SDS011;7268;50.792;0.252;2022-12-18T06:15:12;17.52;;;4.88;;
14369;SDS011;7268;50.792;0.252;2022-12-18T06:17:43;16.80;;;4.72;;
14369;SDS011;7268;50.792;0.252;2022-12-18T06:20:21;17.90;;;4.72;;
14369;SDS011;7268;50.792;0.252;2022-12-18T06:22:51;12.93;;;4.80;;
14369;SDS011;7268;50.792;0.252;2022-12-18T06:25:19;14.05;;;4.93;;
14369;SDS011;7268;50.792;0.252;2022-12-18T06:27:47;13.35;;;4.68;;
14369;SDS011;7268;50.792;0.252;2022-12-18T06:30:17;12.93;;;5.10;;
14369;SDS011;7268;50.792;0.252;2022-12-18T06:32:45;13.13;;;4.45;;
14369;SDS011;7268;50.792;0.252;2022-12-18T06:35:20;15.98;;;5.15;;
14369;SDS011;7268;50.792;0.252;2022-12-18T06:37:48;13.45;;;4.70;;
14369;SDS011;7268;50.792;0.252;2022-12-18T06:40:16;12.50;;;4.10;;
14369;SDS011;7268;50.792;0.252;2022-12-18T06:42:44;16.98;;;5.35;;
14369;SDS011;7268;50.792;0.252;2022-12-18T06:45:17;11.75;;;3.97;;
14369;SDS011;7268;50.792;0.252;2022-12-18T06:47:50;20.05;;;5.50;;
14369;SDS011;7268;50.792;0.252;2022-12-18T06:50:24;18.10;;;5.90;;
14369;SDS011;7268;50.792;0.252;2022-12-18T06:52:55;15.70;;;5.25;;
14369;SDS011;7268;50.792;0.252;2022-12-18T06:55:23;11.43;;;5.13;;
14369;SDS011;7268;50.792;0.252;2022-12-18T06:57:51;16.75;;;4.93;;
14369;SDS011;7268;50.792;0.252;2022-12-18T07:00:22;15.93;;;5.32;;
14369;SDS011;7268;50.792;0.252;2022-12-18T07:02:50;15.00;;;5.28;;
14369;SDS011;7268;50.792;0.252;2022-12-18T07:05:18;19.92;;;6.10;;
14369;SDS011;7268;50.792;0.252;2022-12-18T07:07:53;14.10;;;5.70;;
14369;SDS011;7268;50.792;0.252;2022-12-18T07:10:24;21.05;;;5.70;;
14369;SDS011;7268;50.792;0.252;2022-12-18T07:12:53;20.30;;;6.70;;
14369;SDS011;7268;50.792;0.252;2022-12-18T07:15:22;19.92;;;6.65;;
14369;SDS011;7268;50.792;0.252;2022-12-18T07:17:50;23.17;;;6.75;;
14369;SDS011;7268;50.792;0.252;2022-12-18T07:20:21;23.52;;;7.90;;
14369;SDS011;7268;50.792;0.252;2022-12-18T07:22:48;20.05;;;6.70;;
14369;SDS011;7268;50.792;0.252;2022-12-18T07:25:21;17.58;;;6.22;;
14369;SDS011;7268;50.792;0.252;2022-12-18T07:27:48;13.60;;;5.57;;
14369;SDS011;7268;50.792;0.252;2022-12-18T07:30:16;27.33;;;6.88;;
14369;SDS011;7268;50.792;0.252;2022-12-18T07:32:44;21.88;;;7.50;;
14369;SDS011;7268;50.792;0.252;2022-12-18T07:35:12;18.25;;;6.10;;
14369;SDS011;7268;50.792;0.252;2022-12-18T07:37:49;21.45;;;6.68;;
14369;SDS011;7268;50.792;0.252;2022-12-18T07:40:19;21.60;;;7.05;;
14369;SDS011;7268;50.792;0.252;2022-12-18T07:42:50;26.58;;;8.05;;
14369;SDS011;7268;50.792;0.252;2022-12-18T07:45:18;22.08;;;7.32;;
14369;SDS011;7268;50.792;0.252;2022-12-18T07:47:45;21.70;;;7.50;;
14369;SDS011;7268;50.792;0.252;2022-12-18T07:50:13;19.20;;;7.20;;
14369;SDS011;7268;50.792;0.252;2022-12-18T07:52:44;20.98;;;7.30;;
14369;SDS011;7268;50.792;0.252;2022-12-18T07:55:11;18.73;;;7.82;;
14369;SDS011;7268;50.792;0.252;2022-12-18T07:57:42;23.38;;;7.07;;
14369;SDS011;7268;50.792;0.252;2022-12-18T08:00:18;18.50;;;7.53;;
14369;SDS011;7268;50.792;0.252;2022-12-18T08:02:50;21.60;;;7.67;;
14369;SDS011;7268;50.792;0.252;2022-12-18T08:05:18;24.60;;;8.18;;
14369;SDS011;7268;50.792;0.252;2022-12-18T08:07:47;26.02;;;8.20;;
14369;SDS011;7268;50.792;0.252;2022-12-18T08:10:16;23.90;;;7.63;;
14369;SDS011;7268;50.792;0.252;2022-12-18T08:12:52;21.25;;;6.57;;
14369;SDS011;7268;50.792;0.252;2022-12-18T08:15:29;22.05;;;7.22;;
14369;SDS011;7268;50.792;0.252;2022-12-18T08:17:59;24.63;;;8.23;;
14369;SDS011;7268;50.792;0.252;2022-12-18T08:20:28;22.73;;;7.93;;
14369;SDS011;7268;50.792;0.252;2022-12-18T08:22:57;24.38;;;8.90;;
14369;SDS011;7268;50.792;0.252;2022-12-18T08:25:26;27.88;;;8.35;;
14369;SDS011;7268;50.792;0.252;2022-12-18T08:27:53;21.23;;;7.57;;
14369;SDS011;7268;50.792;0.252;2022-12-18T08:30:23;25.17;;;9.55;;
14369;SDS011;7268;50.792;0.252;2022-12-18T08:32:57;26.73;;;8.88;;
14369;SDS011;7268;50.792;0.252;2022-12-18T08:35:25;31.70;;;10.05;;
14369;SDS011;7268;50.792;0.252;2022-12-18T08:38:13;26.98;;;9.15;;
14369;SDS011;7268;50.792;0.252;2022-12-18T08:40:40;31.33;;;10.65;;
14369;SDS011;7268;50.792;0.252;2022-12-18T08:43:10;22.98;;;9.10;;
14369;SDS011;7268;50.792;0.252;2022-12-18T08:46:01;32.58;;;9.15;;
14369;SDS011;7268;50.792;0.252;2022-12-18T08:48:32;35.03;;;10.60;;
14369;SDS011;7268;50.792;0.252;2022-12-18T08:51:00;27.05;;;9.85;;
14369;SDS011;7268;50.792;0.252;2022-12-18T08:53:28;27.75;;;9.63;;
14369;SDS011;7268;50.792;0.252;2022-12-18T08:58:28;40.00;;;10.43;;
14369;SDS011;7268;50.792;0.252;2022-12-18T09:01:03;31.75;;;9.70;;
14369;SDS011;7268;50.792;0.252;2022-12-18T09:03:31;27.55;;;9.15;;
14369;SDS011;7268;50.792;0.252;2022-12-18T09:06:08;30.45;;;10.93;;
14369;SDS011;7268;50.792;0.252;2022-12-18T09:11:21;29.15;;;10.05;;
14369;SDS011;7268;50.792;0.252;2022-12-18T09:13:49;32.80;;;9.38;;
14369;SDS011;7268;50.792;0.252;2022-12-18T09:16:17;29.73;;;11.25;;
14369;SDS011;7268;50.792;0.252;2022-12-18T09:18:46;31.48;;;11.05;;
14369;SDS011;7268;50.792;0.252;2022-12-18T09:21:20;31.67;;;12.07;;
14369;SDS011;7268;50.792;0.252;2022-12-18T09:23:53;30.42;;;10.95;;
14369;SDS011;7268;50.792;0.252;2022-12-18T09:26:21;30.00;;;11.30;;
14369;SDS011;7268;50.792;0.252;2022-12-18T09:28:48;33.90;;;12.23;;
14369;SDS011;7268;50.792;0.252;2022-12-18T09:31:19;34.22;;;11.45;;
14369;SDS011;7268;50.792;0.252;2022-12-18T09:33:48;29.88;;;11.45;;
14369;SDS011;7268;50.792;0.252;2022-12-18T09:36:16;34.17;;;11.50;;
14369;SDS011;7268;50.792;0.252;2022-12-18T09:38:50;31.13;;;10.55;;
14369;SDS011;7268;50.792;0.252;2022-12-18T09:43:54;34.83;;;11.05;;
14369;SDS011;7268;50.792;0.252;2022-12-18T09:46:30;30.23;;;11.10;;
14369;SDS011;7268;50.792;0.252;2022-12-18T09:49:02;32.40;;;11.88;;
14369;SDS011;7268;50.792;0.252;2022-12-18T09:51:39;31.40;;;12.77;;
14369;SDS011;7268;50.792;0.252;2022-12-18T09:54:14;38.38;;;12.75;;
14369;SDS011;7268;50.792;0.252;2022-12-18T09:56:44;34.03;;;12.30;;
14369;SDS011;7268;50.792;0.252;2022-12-18T09:59:18;34.60;;;12.63;;
14369;SDS011;7268;50.792;0.252;2022-12-18T10:01:47;34.83;;;11.60;;
14369;SDS011;7268;50.792;0.252;2022-12-18T10:04:18;30.50;;;10.93;;
14369;SDS011;7268;50.792;0.252;2022-12-18T10:07:02;34.03;;;12.55;;
14369;SDS011;7268;50.792;0.252;2022-12-18T10:09:37;27.92;;;10.52;;
14369;SDS011;7268;50.792;0.252;2022-12-18T10:12:19;28.98;;;11.43;;
14369;SDS011;7268;50.792;0.252;2022-12-18T10:17:51;30.02;;;11.55;;
14369;SDS011;7268;50.792;0.252;2022-12-18T10:20:31;31.35;;;9.18;;
14369;SDS011;7268;50.792;0.252;2022-12-18T10:25:58;28.58;;;10.48;;
14369;SDS011;7268;50.792;0.252;2022-12-18T10:28:35;28.35;;;10.32;;
14369;SDS011;7268;50.792;0.252;2022-12-18T10:31:07;28.98;;;10.90;;
14369;SDS011;7268;50.792;0.252;2022-12-18T10:33:34;30.60;;;11.50;;
14369;SDS011;7268;50.792;0.252;2022-12-18T10:36:05;27.17;;;10.80;;
14369;SDS011;7268;50.792;0.252;2022-12-18T10:38:33;33.13;;;11.82;;
14369;SDS011;7268;50.792;0.252;2022-12-18T10:42:25;24.02;;;10.15;;
14369;SDS011;7268;50.792;0.252;2022-12-18T10:45:16;34.15;;;11.30;;
14369;SDS011;7268;50.792;0.252;2022-12-18T10:47:52;33.08;;;11.52;;
14369;SDS011;7268;50.792;0.252;2022-12-18T10:50:26;29.95;;;10.80;;
14369;SDS011;7268;50.792;0.252;2022-12-18T10:53:23;24.40;;;9.73;;
14369;SDS011;7268;50.792;0.252;2022-12-18T10:55:52;32.92;;;10.48;;
14369;SDS011;7268;50.792;0.252;2022-12-18T11:06:15;31.83;;;11.68;;
14369;SDS011;7268;50.792;0.252;2022-12-18T11:08:56;31.05;;;12.25;;
14369;SDS011;7268;50.792;0.252;2022-12-18T11:11:43;32.80;;;11.75;;
14369;SDS011;7268;50.792;0.252;2022-12-18T11:17:31;31.98;;;11.63;;
14369;SDS011;7268;50.792;0.252;2022-12-18T11:20:04;37.38;;;12.93;;
14369;SDS011;7268;50.792;0.252;2022-12-18T11:22:36;32.28;;;11.75;;
14369;SDS011;7268;50.792;0.252;2022-12-18T11:27:59;30.33;;;10.55;;
14369;SDS011;7268;50.792;0.252;2022-12-18T11:30:34;35.97;;;12.50;;
14369;SDS011;7268;50.792;0.252;2022-12-18T11:38:28;34.45;;;11.60;;
14369;SDS011;7268;50.792;0.252;2022-12-18T11:41:19;32.80;;;11.88;;
14369;SDS011;7268;50.792;0.252;2022-12-18T11:43:53;27.92;;;10.20;;
14369;SDS011;7268;50.792;0.252;2022-12-18T11:46:36;30.67;;;11.82;;
14369;SDS011;7268;50.792;0.252;2022-12-18T11:49:56;31.20;;;11.73;;
14369;SDS011;7268;50.792;0.252;2022-12-18T11:54:27;34.80;;;13.00;;
14369;SDS011;7268;50.792;0.252;2022-12-18T12:02:17;31.80;;;12.73;;
14369;SDS011;7268;50.792;0.252;2022-12-18T12:08:01;33.05;;;13.32;;
14369;SDS011;7268;50.792;0.252;2022-12-18T12:10:46;34.53;;;11.80;;
14369;SDS011;7268;50.792;0.252;2022-12-18T12:21:26;34.75;;;10.50;;
14369;SDS011;7268;50.792;0.252;2022-12-18T12:34:04;32.67;;;12.57;;
14369;SDS011;7268;50.792;0.252;2022-12-18T12:39:15;31.55;;;11.88;;
14369;SDS011;7268;50.792;0.252;2022-12-18T12:41:52;32.08;;;12.68;;
14369;SDS011;7268;50.792;0.252;2022-12-18T12:44:46;36.05;;;12.48;;
14369;SDS011;7268;50.792;0.252;2022-12-18T12:47:23;32.05;;;11.55;;
14369;SDS011;7268;50.792;0.252;2022-12-18T12:49:54;34.83;;;12.18;;
14369;SDS011;7268;50.792;0.252;2022-12-18T12:52:31;31.27;;;10.48;;
14369;SDS011;7268;50.792;0.252;2022-12-18T12:54:59;29.38;;;9.85;;
14369;SDS011;7268;50.792;0.252;2022-12-18T12:57:33;34.67;;;10.43;;
14369;SDS011;7268;50.792;0.252;2022-12-18T13:00:13;33.70;;;12.57;;
14369;SDS011;7268;50.792;0.252;2022-12-18T13:02:59;32.40;;;11.10;;
14369;SDS011;7268;50.792;0.252;2022-12-18T13:05:40;31.67;;;11.68;;
14369;SDS011;7268;50.792;0.252;2022-12-18T13:08:26;32.40;;;11.60;;
14369;SDS011;7268;50.792;0.252;2022-12-18T13:10:59;36.63;;;11.25;;
14369;SDS011;7268;50.792;0.252;2022-12-18T13:13:50;32.22;;;11.10;;
14369;SDS011;7268;50.792;0.252;2022-12-18T13:16:22;35.45;;;12.77;;
14369;SDS011;7268;50.792;0.252;2022-12-18T13:18:54;23.50;;;9.00;;
14369;SDS011;7268;50.792;0.252;2022-12-18T13:21:32;33.05;;;11.13;;
14369;SDS011;7268;50.792;0.252;2022-12-18T13:24:36;31.08;;;10.73;;
14369;SDS011;7268;50.792;0.252;2022-12-18T13:26:57;35.25;;;13.02;;
14369;SDS011;7268;50.792;0.252;2022-12-18T13:29:41;34.75;;;12.07;;
14369;SDS011;7268;50.792;0.252;2022-12-18T13:32:23;29.77;;;11.70;;
14369;SDS011;7268;50.792;0.252;2022-12-18T13:37:40;37.42;;;14.15;;
14369;SDS011;7268;50.792;0.252;2022-12-18T13:43:01;39.80;;;13.45;;
14369;SDS011;7268;50.792;0.252;2022-12-18T13:45:42;35.55;;;11.98;;
14369;SDS011;7268;50.792;0.252;2022-12-18T13:48:17;23.20;;;9.20;;
14369;SDS011;7268;50.792;0.252;2022-12-18T13:50:49;34.15;;;11.15;;
14369;SDS011;7268;50.792;0.252;2022-12-18T13:53:21;29.67;;;11.20;;
14369;SDS011;7268;50.792;0.252;2022-12-18T13:55:51;26.58;;;8.95;;
14369;SDS011;7268;50.792;0.252;2022-12-18T13:58:19;33.05;;;10.73;;
14369;SDS011;7268;50.792;0.252;2022-12-18T14:00:46;35.28;;;11.27;;
14369;SDS011;7268;50.792;0.252;2022-12-18T14:06:15;34.60;;;11.57;;
14369;SDS011;7268;50.792;0.252;2022-12-18T14:08:43;32.90;;;11.50;;
14369;SDS011;7268;50.792;0.252;2022-12-18T14:11:18;31.00;;;12.13;;
14369;SDS011;7268;50.792;0.252;2022-12-18T14:14:03;36.08;;;10.73;;
14369;SDS011;7268;50.792;0.252;2022-12-18T14:16:36;33.75;;;11.80;;
14369;SDS011;7268;50.792;0.252;2022-12-18T14:19:05;32.42;;;11.80;;
14369;SDS011;7268;50.792;0.252;2022-12-18T14:22:02;37.35;;;12.35;;
14369;SDS011;7268;50.792;0.252;2022-12-18T14:24:30;26.55;;;11.15;;
14369;SDS011;7268;50.792;0.252;2022-12-18T14:27:11;37.13;;;10.75;;
14369;SDS011;7268;50.792;0.252;2022-12-18T14:29:43;35.00;;;10.57;;
14369;SDS011;7268;50.792;0.252;2022-12-18T14:32:17;29.63;;;10.70;;
14369;SDS011;7268;50.792;0.252;2022-12-18T14:34:46;26.58;;;10.55;;
14369;SDS011;7268;50.792;0.252;2022-12-18T14:37:16;28.75;;;11.02;;
14369;SDS011;7268;50.792;0.252;2022-12-18T14:39:58;33.08;;;11.18;;
14369;SDS011;7268;50.792;0.252;2022-12-18T14:42:35;29.58;;;11.23;;
14369;SDS011;7268;50.792;0.252;2022-12-18T14:47:49;45.67;;;14.50;;
14369;SDS011;7268;50.792;0.252;2022-12-18T14:50:18;26.63;;;10.65;;
14369;SDS011;7268;50.792;0.252;2022-12-18T14:52:46;40.45;;;14.15;;
14369;SDS011;7268;50.792;0.252;2022-12-18T14:55:15;33.05;;;13.00;;
14369;SDS011;7268;50.792;0.252;2022-12-18T14:57:43;39.65;;;14.57;;
14369;SDS011;7268;50.792;0.252;2022-12-18T15:00:20;48.78;;;15.05;;
14369;SDS011;7268;50.792;0.252;2022-12-18T15:03:05;37.15;;;11.63;;
14369;SDS011;7268;50.792;0.252;2022-12-18T15:05:39;40.65;;;13.38;;
14369;SDS011;7268;50.792;0.252;2022-12-18T15:08:24;44.90;;;13.80;;
14369;SDS011;7268;50.792;0.252;2022-12-18T15:10:58;38.35;;;12.85;;
14369;SDS011;7268;50.792;0.252;2022-12-18T15:13:31;36.70;;;13.55;;
14369;SDS011;7268;50.792;0.252;2022-12-18T15:16:00;40.75;;;11.85;;
14369;SDS011;7268;50.792;0.252;2022-12-18T15:18:30;42.55;;;13.88;;
14369;SDS011;7268;50.792;0.252;2022-12-18T15:21:07;45.63;;;15.40;;
14369;SDS011;7268;50.792;0.252;2022-12-18T15:26:07;44.42;;;15.80;;
14369;SDS011;7268;50.792;0.252;2022-12-18T15:28:43;45.72;;;14.45;;
14369;SDS011;7268;50.792;0.252;2022-12-18T15:31:35;47.30;;;16.15;;
14369;SDS011;7268;50.792;0.252;2022-12-18T15:36:52;60.30;;;15.60;;
14369;SDS011;7268;50.792;0.252;2022-12-18T15:39:47;52.30;;;16.55;;
14369;SDS011;7268;50.792;0.252;2022-12-18T15:42:18;56.63;;;16.95;;
14369;SDS011;7268;50.792;0.252;2022-12-18T15:45:05;52.20;;;15.73;;
14369;SDS011;7268;50.792;0.252;2022-12-18T15:47:33;45.25;;;13.23;;
14369;SDS011;7268;50.792;0.252;2022-12-18T15:50:00;51.03;;;14.45;;
14369;SDS011;7268;50.792;0.252;2022-12-18T15:52:32;52.92;;;15.88;;
14369;SDS011;7268;50.792;0.252;2022-12-18T15:55:05;43.67;;;13.95;;
14369;SDS011;7268;50.792;0.252;2022-12-18T15:58:17;42.42;;;14.93;;
14369;SDS011;7268;50.792;0.252;2022-12-18T16:00:46;50.35;;;14.85;;
14369;SDS011;7268;50.792;0.252;2022-12-18T16:03:14;45.55;;;15.27;;
14369;SDS011;7268;50.792;0.252;2022-12-18T16:05:42;59.67;;;15.02;;
14369;SDS011;7268;50.792;0.252;2022-12-18T16:08:09;51.38;;;16.33;;
14369;SDS011;7268;50.792;0.252;2022-12-18T16:10:40;46.63;;;14.27;;
14369;SDS011;7268;50.792;0.252;2022-12-18T16:13:10;46.47;;;11.85;;
14369;SDS011;7268;50.792;0.252;2022-12-18T16:15:38;47.70;;;15.73;;
14369;SDS011;7268;50.792;0.252;2022-12-18T16:18:09;48.90;;;12.88;;
14369;SDS011;7268;50.792;0.252;2022-12-18T16:20:41;42.03;;;12.63;;
14369;SDS011;7268;50.792;0.252;2022-12-18T16:23:08;43.13;;;13.77;;
14369;SDS011;7268;50.792;0.252;2022-12-18T16:25:36;50.92;;;16.55;;
14369;SDS011;7268;50.792;0.252;2022-12-18T16:28:06;43.15;;;15.38;;
14369;SDS011;7268;50.792;0.252;2022-12-18T16:30:37;55.08;;;16.67;;
14369;SDS011;7268;50.792;0.252;2022-12-18T16:33:05;41.15;;;15.20;;
14369;SDS011;7268;50.792;0.252;2022-12-18T16:35:33;42.88;;;14.18;;
14369;SDS011;7268;50.792;0.252;2022-12-18T16:38:06;40.42;;;13.40;;
14369;SDS011;7268;50.792;0.252;2022-12-18T16:40:33;52.28;;;17.75;;
14369;SDS011;7268;50.792;0.252;2022-12-18T16:43:30;47.08;;;14.93;;
14369;SDS011;7268;50.792;0.252;2022-12-18T16:46:00;46.30;;;14.43;;
14369;SDS011;7268;50.792;0.252;2022-12-18T16:48:31;53.33;;;19.23;;
14369;SDS011;7268;50.792;0.252;2022-12-18T16:51:28;42.47;;;12.82;;
14369;SDS011;7268;50.792;0.252;2022-12-18T16:53:56;43.45;;;13.45;;
14369;SDS011;7268;50.792;0.252;2022-12-18T16:56:24;47.88;;;15.10;;
14369;SDS011;7268;50.792;0.252;2022-12-18T16:58:52;53.63;;;15.82;;
14369;SDS011;7268;50.792;0.252;2022-12-18T17:01:23;44.15;;;15.80;;
14369;SDS011;7268;50.792;0.252;2022-12-18T17:03:54;52.78;;;15.60;;
14369;SDS011;7268;50.792;0.252;2022-12-18T17:06:22;51.53;;;16.27;;
14369;SDS011;7268;50.792;0.252;2022-12-18T17:08:56;52.60;;;17.42;;
14369;SDS011;7268;50.792;0.252;2022-12-18T17:11:28;43.38;;;15.50;;